Syros Wind — SVA7559 — position and weather

sailwx.info

Track history (hours):
 
Tides and Currents Weather Stations Pressure Air Temp Water Temp Dewpoint Dewpoint Depression Visibility Wind Speed Wind Dir Waves Ship Positions

Syros Wind

Last reported at 2018-Feb-17 21:55 UTC. Time now 2018-Feb-20 15:42 UTC.
Position N 38°02' E 024°12'.

Length 87 m; draft 3.8 m.

Type: Cargo ship. MMSI: 241475000.

Date/timePositionNaut miles runAvg speedWind from/ knotsBaromVisibWave heightAir tempDewpointWater temp
2018-Feb-17 21:55N 38°02' E 024°12'7 9.5
2018-Feb-17 21:12N 38°08' E 024°09'3 0.1
2018-Feb-16 13:39N 38°08' E 024°05'4 8.9
2018-Feb-16 13:15N 38°04' E 024°06'2 8.6
2018-Feb-16 12:59N 38°02' E 024°06'5 7.8
2018-Feb-16 12:20N 37°57' E 024°07'24 6.0
2018-Feb-16 08:22N 37°40' E 023°46'3 9.2
2018-Feb-16 08:00N 37°41' E 023°42'510.7
2018-Feb-16 07:30N 37°46' E 023°39'510.7
2018-Feb-16 07:00N 37°51' E 023°36'510.5
2018-Feb-16 06:30N 37°56' E 023°35'4 8.0
2018-Feb-16 06:00N 37°60' E 023°33'3 5.8
2018-Feb-16 05:29N 38°03' E 023°32'0 0.0
2018-Feb-16 04:52N 38°03' E 023°32'0 0.0
2018-Feb-16 04:28N 38°03' E 023°32'0 0.0
2018-Feb-16 03:58N 38°03' E 023°32'0 0.0
2018-Feb-16 03:31N 38°03' E 023°32'0 0.0
2018-Feb-16 03:00N 38°03' E 023°32'0 0.0
2018-Feb-16 02:30N 38°03' E 023°32'0 0.0
2018-Feb-16 02:00N 38°03' E 023°32'0 0.0
2018-Feb-16 01:29N 38°03' E 023°32'0 0.0
2018-Feb-16 00:59N 38°03' E 023°32'0 0.0
2018-Feb-16 00:29N 38°03' E 023°32'0 0.0
2018-Feb-15 23:57N 38°03' E 023°32'0 0.0
2018-Feb-15 23:30N 38°03' E 023°32'0 0.0
2018-Feb-15 22:59N 38°03' E 023°32'0 0.0
2018-Feb-15 22:29N 38°03' E 023°32'0 0.0
2018-Feb-15 21:59N 38°03' E 023°32'0 0.0
2018-Feb-15 21:28N 38°03' E 023°32'0 0.0
2018-Feb-15 20:58N 38°03' E 023°32'0 0.0
2018-Feb-15 20:28N 38°03' E 023°32'0 0.0
2018-Feb-15 19:58N 38°03' E 023°32'0 0.0
2018-Feb-15 19:28N 38°03' E 023°32'0 0.0
2018-Feb-15 18:58N 38°03' E 023°32'0 0.0
2018-Feb-15 18:29N 38°03' E 023°32'0 0.0
2018-Feb-15 17:58N 38°03' E 023°32'0 0.0
2018-Feb-15 17:28N 38°03' E 023°32'0 0.0
2018-Feb-15 16:55N 38°03' E 023°32'0 0.0
2018-Feb-15 16:30N 38°03' E 023°32'0 0.1
2018-Feb-15 16:00N 38°03' E 023°32'3 5.9
2018-Feb-15 15:30N 37°60' E 023°33'4 7.3
2018-Feb-15 15:01N 37°57' E 023°35'4 8.9
2018-Feb-15 14:30N 37°53' E 023°37'5 9.4
2018-Feb-15 14:00N 37°49' E 023°41'5 9.9
2018-Feb-15 13:31N 37°44' E 023°44'  
2018-Feb-12 09:28N 38°03' E 024°11'5 9.7
2018-Feb-12 08:55N 38°08' E 024°09'3 0.1
2018-Feb-11 13:37N 38°08' E 024°05'411.3
2018-Feb-11 13:17N 38°04' E 024°06'311.3
2018-Feb-11 13:00N 38°01' E 024°06'29 8.1
2018-Feb-11 09:22N 37°36' E 023°47'3 9.8
2018-Feb-11 09:00N 37°38' E 023°44'510.3
2018-Feb-11 08:30N 37°43' E 023°40'611.0
2018-Feb-11 08:00N 37°48' E 023°37'510.7
2018-Feb-11 07:30N 37°49' E 023°31'611.3
2018-Feb-11 07:00N 37°51' E 023°24'611.6
2018-Feb-11 06:30N 37°52' E 023°17'611.6
2018-Feb-11 06:00N 37°53' E 023°09'611.3
2018-Feb-11 05:30N 37°54' E 023°02'4 6.6
2018-Feb-11 04:51N 37°57' E 022°58'1 3.5
2018-Feb-11 04:30N 37°58' E 022°57'1 1.1
2018-Feb-11 04:00N 37°58' E 022°56'2 4.3
2018-Feb-11 03:30N 37°59' E 022°54'2 4.5
2018-Feb-11 03:00N 37°60' E 022°51'3 6.5
2018-Feb-11 02:30N 38°02' E 022°48'4 7.1
2018-Feb-11 02:00N 38°04' E 022°44'  
Track history (hours):
 
Tides and Currents Weather Stations Pressure Air Temp Water Temp Dewpoint Dewpoint Depression Visibility Wind Speed Wind Dir Waves Ship Positions

Syros Wind

Last reported at 2018-Feb-17 21:55 UTC. Time now 2018-Feb-20 15:42 UTC.
Position N 38°02' E 024°12'.

Length 87 m; draft 3.8 m.

Type: Cargo ship. MMSI: 241475000.

Date/timePositionNaut miles runAvg speedWind from/ knotsBaromVisibWave heightAir tempDewpointWater temp
2018-Feb-17 21:55N 38°02' E 024°12'7 9.5
2018-Feb-17 21:12N 38°08' E 024°09'3 0.1
2018-Feb-16 13:39N 38°08' E 024°05'4 8.9
2018-Feb-16 13:15N 38°04' E 024°06'2 8.6
2018-Feb-16 12:59N 38°02' E 024°06'5 7.8
2018-Feb-16 12:20N 37°57' E 024°07'24 6.0
2018-Feb-16 08:22N 37°40' E 023°46'3 9.2
2018-Feb-16 08:00N 37°41' E 023°42'510.7
2018-Feb-16 07:30N 37°46' E 023°39'510.7
2018-Feb-16 07:00N 37°51' E 023°36'510.5
2018-Feb-16 06:30N 37°56' E 023°35'4 8.0
2018-Feb-16 06:00N 37°60' E 023°33'3 5.8
2018-Feb-16 05:29N 38°03' E 023°32'0 0.0
2018-Feb-16 04:52N 38°03' E 023°32'0 0.0
2018-Feb-16 04:28N 38°03' E 023°32'0 0.0
2018-Feb-16 03:58N 38°03' E 023°32'0 0.0
2018-Feb-16 03:31N 38°03' E 023°32'0 0.0
2018-Feb-16 03:00N 38°03' E 023°32'0 0.0
2018-Feb-16 02:30N 38°03' E 023°32'0 0.0
2018-Feb-16 02:00N 38°03' E 023°32'0 0.0
2018-Feb-16 01:29N 38°03' E 023°32'0 0.0
2018-Feb-16 00:59N 38°03' E 023°32'0 0.0
2018-Feb-16 00:29N 38°03' E 023°32'0 0.0
2018-Feb-15 23:57N 38°03' E 023°32'0 0.0
2018-Feb-15 23:30N 38°03' E 023°32'0 0.0
2018-Feb-15 22:59N 38°03' E 023°32'0 0.0
2018-Feb-15 22:29N 38°03' E 023°32'0 0.0
2018-Feb-15 21:59N 38°03' E 023°32'0 0.0
2018-Feb-15 21:28N 38°03' E 023°32'0 0.0
2018-Feb-15 20:58N 38°03' E 023°32'0 0.0
2018-Feb-15 20:28N 38°03' E 023°32'0 0.0
2018-Feb-15 19:58N 38°03' E 023°32'0 0.0
2018-Feb-15 19:28N 38°03' E 023°32'0 0.0
2018-Feb-15 18:58N 38°03' E 023°32'0 0.0
2018-Feb-15 18:29N 38°03' E 023°32'0 0.0
2018-Feb-15 17:58N 38°03' E 023°32'0 0.0
2018-Feb-15 17:28N 38°03' E 023°32'0 0.0
2018-Feb-15 16:55N 38°03' E 023°32'0 0.0
2018-Feb-15 16:30N 38°03' E 023°32'0 0.1
2018-Feb-15 16:00N 38°03' E 023°32'3 5.9
2018-Feb-15 15:30N 37°60' E 023°33'4 7.3
2018-Feb-15 15:01N 37°57' E 023°35'4 8.9
2018-Feb-15 14:30N 37°53' E 023°37'5 9.4
2018-Feb-15 14:00N 37°49' E 023°41'5 9.9
2018-Feb-15 13:31N 37°44' E 023°44'  
2018-Feb-12 09:28N 38°03' E 024°11'5 9.7
2018-Feb-12 08:55N 38°08' E 024°09'3 0.1
2018-Feb-11 13:37N 38°08' E 024°05'411.3
2018-Feb-11 13:17N 38°04' E 024°06'311.3
2018-Feb-11 13:00N 38°01' E 024°06'29 8.1
2018-Feb-11 09:22N 37°36' E 023°47'3 9.8
2018-Feb-11 09:00N 37°38' E 023°44'510.3
2018-Feb-11 08:30N 37°43' E 023°40'611.0
2018-Feb-11 08:00N 37°48' E 023°37'510.7
2018-Feb-11 07:30N 37°49' E 023°31'611.3
2018-Feb-11 07:00N 37°51' E 023°24'611.6
2018-Feb-11 06:30N 37°52' E 023°17'611.6
2018-Feb-11 06:00N 37°53' E 023°09'611.3
2018-Feb-11 05:30N 37°54' E 023°02'4 6.6
2018-Feb-11 04:51N 37°57' E 022°58'1 3.5
2018-Feb-11 04:30N 37°58' E 022°57'1 1.1
2018-Feb-11 04:00N 37°58' E 022°56'2 4.3
2018-Feb-11 03:30N 37°59' E 022°54'2 4.5
2018-Feb-11 03:00N 37°60' E 022°51'3 6.5
2018-Feb-11 02:30N 38°02' E 022°48'4 7.1
2018-Feb-11 02:00N 38°04' E 022°44'  

Dump ship's entire track history